Time;durP1;ratioP1;P1;durP2;ratioP2;P2;SDS_P1;SDS_P2;PMS_P1;PMS_P2;Temp;Humidity;BMP_temperature;BMP_pressure;BME280_temperature;BME280_humidity;BME280_pressure;Samples;Min_cycle;Max_cycle;Signal;HPM_P1;HPM_P2
2022/06/14 00:02:14;;;;;;;3.43;2.50;;;11.90;99.90;;;;;;476302;250;28316;-70
2022/06/14 00:04:15;;;;;;;5.07;2.57;;;11.80;99.90;;;;;;476282;250;28303;-71
2022/06/14 00:06:16;;;;;;;4.37;2.30;;;11.70;99.90;;;;;;476302;250;29008;-70
2022/06/14 00:08:17;;;;;;;2.20;2.10;;;11.70;99.90;;;;;;476298;250;28395;-72
2022/06/14 00:10:19;;;;;;;6.10;2.20;;;11.70;99.90;;;;;;476305;250;28583;-70
2022/06/14 00:12:20;;;;;;;2.27;2.10;;;11.70;99.90;;;;;;476302;250;28394;-71
2022/06/14 00:14:21;;;;;;;3.70;2.50;;;11.70;99.90;;;;;;476273;250;29617;-71
2022/06/14 00:16:22;;;;;;;2.43;2.27;;;11.60;99.90;;;;;;476308;250;28853;-70
2022/06/14 00:18:24;;;;;;;2.77;2.57;;;11.60;99.90;;;;;;476307;250;28935;-72
2022/06/14 00:20:25;;;;;;;3.00;2.30;;;11.60;99.90;;;;;;476319;250;28477;-71
2022/06/14 00:22:26;;;;;;;2.60;2.50;;;11.60;99.90;;;;;;476315;250;28494;-71
2022/06/14 00:24:27;;;;;;;3.00;2.77;;;11.50;99.90;;;;;;476312;250;28368;-70
2022/06/14 00:26:29;;;;;;;2.30;2.20;;;11.30;99.90;;;;;;476320;250;28283;-70
2022/06/14 00:28:30;;;;;;;2.57;2.37;;;11.30;99.90;;;;;;476313;250;28386;-71
2022/06/14 00:30:31;;;;;;;2.60;2.40;;;11.30;99.90;;;;;;476313;250;28110;-70
2022/06/14 00:32:32;;;;;;;2.90;2.70;;;11.30;99.90;;;;;;476298;250;28457;-71
2022/06/14 00:34:34;;;;;;;2.50;2.40;;;11.30;99.90;;;;;;476306;246;28413;-72
2022/06/14 00:36:35;;;;;;;2.80;2.60;;;11.30;99.90;;;;;;476302;250;28852;-70
2022/06/14 00:38:36;;;;;;;2.67;2.50;;;11.20;99.90;;;;;;476264;250;28657;-71
2022/06/14 00:40:37;;;;;;;2.53;2.43;;;11.20;99.90;;;;;;476264;250;28671;-71
2022/06/14 00:42:39;;;;;;;2.43;2.33;;;11.20;99.90;;;;;;476277;250;28776;-70
2022/06/14 00:44:40;;;;;;;2.67;2.50;;;11.30;99.90;;;;;;476316;250;28476;-72
2022/06/14 00:46:41;;;;;;;2.67;2.47;;;11.30;99.90;;;;;;476290;250;28442;-70
2022/06/14 00:48:42;;;;;;;2.80;2.57;;;11.20;99.90;;;;;;476276;250;28305;-71
2022/06/14 00:50:44;;;;;;;3.00;2.80;;;11.10;99.90;;;;;;476253;250;28232;-70
2022/06/14 00:52:45;;;;;;;2.83;2.60;;;11.10;99.90;;;;;;476253;250;28281;-70
2022/06/14 00:54:47;;;;;;;2.63;2.43;;;11.10;99.90;;;;;;476255;250;28250;-71
2022/06/14 00:56:47;;;;;;;2.57;2.40;;;11.10;99.90;;;;;;476175;250;28246;-70
2022/06/14 00:58:49;;;;;;;3.07;2.87;;;11.00;99.90;;;;;;476205;250;28585;-71
2022/06/14 01:00:50;;;;;;;2.60;2.50;;;11.00;99.90;;;;;;476244;250;28393;-70
2022/06/14 01:02:51;;;;;;;2.40;2.23;;;10.90;99.90;;;;;;476207;250;28703;-70
2022/06/14 01:04:52;;;;;;;2.27;2.17;;;10.80;99.90;;;;;;476263;250;28743;-71
2022/06/14 01:06:54;;;;;;;2.47;2.37;;;10.80;99.90;;;;;;476232;250;28700;-70
2022/06/14 01:08:56;;;;;;;2.93;2.77;;;10.80;99.90;;;;;;476290;250;28773;-71
2022/06/14 01:10:56;;;;;;;2.57;2.47;;;10.80;99.90;;;;;;476210;249;28070;-72
2022/06/14 01:12:57;;;;;;;2.53;2.43;;;10.70;99.90;;;;;;476324;250;28200;-70
2022/06/14 01:14:59;;;;;;;2.80;2.67;;;10.70;99.90;;;;;;476289;250;28089;-71
2022/06/14 01:17:00;;;;;;;2.90;2.70;;;10.70;99.90;;;;;;476302;250;28103;-71
2022/06/14 01:19:01;;;;;;;3.20;2.90;;;10.70;99.90;;;;;;476271;250;28083;-70
2022/06/14 01:21:02;;;;;;;2.77;2.60;;;10.60;99.90;;;;;;476279;250;28383;-73
2022/06/14 01:23:04;;;;;;;2.90;2.70;;;10.60;99.90;;;;;;476286;250;28083;-70
2022/06/14 01:25:05;;;;;;;2.67;2.57;;;10.60;99.90;;;;;;476294;250;28223;-71
2022/06/14 01:27:08;;;;;;;2.50;2.40;;;10.60;99.90;;;;;;476290;250;28738;-70
2022/06/14 01:29:07;;;;;;;2.80;2.70;;;10.70;99.90;;;;;;476112;250;28589;-71
2022/06/14 01:31:09;;;;;;;3.37;3.17;;;10.70;99.90;;;;;;476305;250;28736;-71
2022/06/14 01:33:10;;;;;;;2.70;2.60;;;10.60;99.90;;;;;;476282;250;28546;-70
2022/06/14 01:35:11;;;;;;;2.83;2.63;;;10.60;99.90;;;;;;476276;250;28177;-71
2022/06/14 01:37:13;;;;;;;2.80;2.60;;;10.50;99.90;;;;;;476266;250;28157;-70
2022/06/14 01:39:14;;;;;;;2.50;2.40;;;10.50;99.90;;;;;;476264;250;27969;-70
2022/06/14 01:41:15;;;;;;;2.43;2.33;;;10.40;99.90;;;;;;476286;250;28026;-70
2022/06/14 01:43:16;;;;;;;2.97;2.70;;;10.40;99.90;;;;;;476295;250;28016;-71
2022/06/14 01:45:17;;;;;;;2.60;2.40;;;10.40;99.90;;;;;;476294;250;28030;-71
2022/06/14 01:47:19;;;;;;;2.33;2.23;;;10.40;99.90;;;;;;476250;250;27987;-71
2022/06/14 01:51:52;;;;;;;2.60;2.50;;;10.30;99.90;;;;;;476290;250;28016;-71
2022/06/14 01:53:53;;;;;;;2.70;2.50;;;10.10;99.90;;;;;;476250;250;28009;-71
2022/06/14 01:55:54;;;;;;;2.40;2.30;;;10.10;99.90;;;;;;476265;250;28652;-70
2022/06/14 01:57:55;;;;;;;2.60;2.50;;;10.10;99.90;;;;;;476246;250;28548;-73
2022/06/14 01:59:57;;;;;;;2.40;2.30;;;10.20;99.90;;;;;;476274;250;28598;-71
2022/06/14 02:01:58;;;;;;;2.63;2.50;;;10.20;99.90;;;;;;476267;250;28516;-71
2022/06/14 02:06:18;;;;;;;2.70;2.50;;;10.30;99.90;;;;;;476267;250;28052;-70
2022/06/14 02:08:20;;;;;;;2.40;2.30;;;10.30;99.90;;;;;;476245;250;28071;-73
2022/06/14 02:10:21;;;;;;;2.93;2.73;;;10.30;99.90;;;;;;476283;249;28036;-71
2022/06/14 02:12:22;;;;;;;2.70;2.60;;;10.20;99.90;;;;;;476322;250;27908;-71
2022/06/14 02:14:23;;;;;;;2.30;2.20;;;10.20;99.90;;;;;;476308;250;27927;-70
2022/06/14 02:16:25;;;;;;;2.60;2.50;;;10.20;99.90;;;;;;476306;250;28030;-71
2022/06/14 02:18:26;;;;;;;2.60;2.50;;;10.10;99.90;;;;;;476347;250;28381;-72
2022/06/14 02:20:27;;;;;;;2.40;2.30;;;9.90;99.90;;;;;;476327;250;28102;-71
2022/06/14 02:22:28;;;;;;;2.73;2.53;;;9.80;99.90;;;;;;476299;250;28043;-72
2022/06/14 02:24:30;;;;;;;2.60;2.50;;;9.80;99.90;;;;;;476284;250;28131;-70
2022/06/14 02:26:31;;;;;;;2.73;2.57;;;9.80;99.90;;;;;;476264;250;28346;-71
2022/06/14 02:28:35;;;;;;;2.53;2.43;;;9.90;99.90;;;;;;476313;250;28338;-71
2022/06/14 02:30:33;;;;;;;2.60;2.50;;;9.90;99.90;;;;;;476205;249;28582;-70
2022/06/14 02:32:35;;;;;;;2.50;2.40;;;9.90;99.90;;;;;;476324;250;28531;-71
2022/06/14 02:34:36;;;;;;;2.80;2.70;;;9.90;99.90;;;;;;476310;250;29466;-70
2022/06/14 02:36:37;;;;;;;2.60;2.50;;;9.90;99.90;;;;;;476326;250;28062;-71
2022/06/14 02:38:38;;;;;;;2.70;2.50;;;9.90;99.90;;;;;;476322;250;27832;-71
2022/06/14 02:40:40;;;;;;;2.80;2.60;;;9.80;99.90;;;;;;476319;250;27938;-70
2022/06/14 02:42:41;;;;;;;2.30;2.20;;;9.80;99.90;;;;;;476278;250;27947;-71
2022/06/14 02:44:42;;;;;;;2.40;2.30;;;9.80;99.90;;;;;;476316;250;27823;-70
2022/06/14 02:46:44;;;;;;;2.90;2.80;;;9.70;99.90;;;;;;476284;250;27912;-70
2022/06/14 02:48:45;;;;;;;2.50;2.33;;;9.80;99.90;;;;;;476311;250;27889;-72
2022/06/14 02:50:46;;;;;;;2.90;2.70;;;9.80;99.90;;;;;;476274;250;27818;-70
2022/06/14 02:52:47;;;;;;;2.30;2.20;;;9.70;99.90;;;;;;476260;250;28055;-70
2022/06/14 02:54:48;;;;;;;2.70;2.53;;;9.70;99.90;;;;;;476310;250;28373;-73
2022/06/14 02:56:50;;;;;;;3.00;2.80;;;9.60;99.90;;;;;;476324;250;27627;-71
2022/06/14 02:58:51;;;;;;;3.03;2.83;;;9.60;99.90;;;;;;476280;250;28026;-71
2022/06/14 03:00:52;;;;;;;2.30;2.20;;;9.50;99.90;;;;;;476270;250;27794;-70
2022/06/14 03:02:53;;;;;;;2.63;2.50;;;9.50;99.90;;;;;;476274;250;27805;-71
2022/06/14 03:04:55;;;;;;;2.70;2.50;;;9.50;99.90;;;;;;476294;250;28420;-73
2022/06/14 03:06:58;;;;;;;2.60;2.40;;;9.50;99.90;;;;;;476317;250;28641;-70
2022/06/14 03:08:57;;;;;;;2.73;2.63;;;9.60;99.90;;;;;;476166;250;28074;-70
2022/06/14 03:10:58;;;;;;;2.97;2.77;;;9.50;99.90;;;;;;476297;250;28484;-70
2022/06/14 03:13:00;;;;;;;2.77;2.67;;;9.50;99.90;;;;;;476292;250;28520;-70
2022/06/14 03:15:01;;;;;;;2.70;2.60;;;9.50;99.90;;;;;;476310;246;27934;-74
2022/06/14 03:17:02;;;;;;;3.00;2.80;;;9.50;99.90;;;;;;476319;250;27980;-70
2022/06/14 03:19:03;;;;;;;2.63;2.50;;;9.50;99.90;;;;;;476254;250;27866;-72
2022/06/14 03:21:05;;;;;;;2.40;2.30;;;9.50;99.90;;;;;;476326;250;27991;-70
2022/06/14 03:23:06;;;;;;;2.80;2.60;;;9.50;99.90;;;;;;476308;250;27831;-71
2022/06/14 03:25:07;;;;;;;3.20;2.90;;;9.50;99.90;;;;;;476222;250;27996;-70
2022/06/14 03:27:08;;;;;;;2.53;2.40;;;9.40;99.90;;;;;;476287;250;27962;-70
2022/06/14 03:29:10;;;;;;;2.67;2.57;;;9.40;99.90;;;;;;476311;250;28003;-72
2022/06/14 03:31:11;;;;;;;2.90;2.70;;;9.40;99.90;;;;;;476307;250;27885;-70
2022/06/14 03:33:12;;;;;;;2.70;2.50;;;9.40;99.90;;;;;;476294;250;28007;-71
2022/06/14 03:35:13;;;;;;;2.60;2.40;;;9.40;99.90;;;;;;476310;250;27810;-73
2022/06/14 03:37:15;;;;;;;2.50;2.40;;;9.40;99.90;;;;;;476290;250;28051;-71
2022/06/14 03:39:16;;;;;;;4.93;2.47;;;9.40;99.90;;;;;;476293;250;27819;-71
2022/06/14 03:41:17;;;;;;;2.50;2.30;;;9.50;99.90;;;;;;476288;250;27822;-70
2022/06/14 03:43:18;;;;;;;2.60;2.40;;;9.50;99.90;;;;;;476273;250;28148;-70
2022/06/14 03:45:20;;;;;;;2.40;2.30;;;9.50;99.90;;;;;;476242;250;28658;-73
2022/06/14 03:47:21;;;;;;;2.20;2.10;;;9.50;99.90;;;;;;476300;250;28558;-71
2022/06/14 03:49:22;;;;;;;2.23;2.13;;;9.50;99.90;;;;;;476283;250;28604;-71
2022/06/14 03:51:23;;;;;;;2.30;2.20;;;9.40;99.90;;;;;;476246;250;28388;-70
2022/06/14 03:53:25;;;;;;;2.17;2.07;;;9.40;99.90;;;;;;476271;250;27730;-71
2022/06/14 03:55:26;;;;;;;2.17;2.07;;;9.40;99.90;;;;;;476297;250;27816;-73
2022/06/14 03:57:27;;;;;;;2.13;2.03;;;9.40;99.90;;;;;;476296;250;27837;-70
2022/06/14 03:59:28;;;;;;;2.13;2.03;;;9.40;99.90;;;;;;476284;250;27960;-72
2022/06/14 04:01:30;;;;;;;2.47;2.37;;;9.50;99.90;;;;;;476272;249;27857;-71
2022/06/14 04:03:32;;;;;;;2.23;2.13;;;9.50;99.90;;;;;;476270;250;27815;-70
2022/06/14 04:05:32;;;;;;;2.20;2.10;;;9.50;99.90;;;;;;476280;250;27935;-73
2022/06/14 04:07:33;;;;;;;2.20;2.10;;;9.60;99.90;;;;;;476303;250;28075;-71
2022/06/14 04:09:35;;;;;;;2.57;2.07;;;9.60;99.90;;;;;;476191;250;27990;-71
2022/06/14 04:11:36;;;;;;;2.20;2.10;;;9.60;99.90;;;;;;476292;250;27943;-71
2022/06/14 04:13:37;;;;;;;2.23;2.13;;;9.60;99.90;;;;;;476288;250;27981;-71
2022/06/14 04:15:38;;;;;;;2.40;2.20;;;9.60;99.90;;;;;;476290;250;28357;-72
2022/06/14 04:17:40;;;;;;;2.00;1.90;;;9.60;99.90;;;;;;476264;250;27879;-70
2022/06/14 04:19:41;;;;;;;2.30;2.20;;;9.70;99.90;;;;;;476280;250;27922;-72
2022/06/14 04:21:42;;;;;;;2.20;2.10;;;9.70;99.90;;;;;;476300;250;28386;-71
2022/06/14 04:23:43;;;;;;;2.10;2.00;;;9.80;99.90;;;;;;476298;250;28404;-70
2022/06/14 04:25:45;;;;;;;2.20;2.10;;;9.90;99.90;;;;;;476310;250;28439;-73
2022/06/14 04:27:46;;;;;;;6.57;3.93;;;10.00;99.90;;;;;;476304;250;28341;-71
2022/06/14 04:29:47;;;;;;;2.13;2.03;;;10.10;99.90;;;;;;476300;250;28603;-71
2022/06/14 04:31:48;;;;;;;2.60;2.40;;;10.10;99.90;;;;;;476279;250;27901;-70
2022/06/14 04:33:50;;;;;;;2.10;2.00;;;10.10;99.90;;;;;;476218;250;28098;-71
2022/06/14 04:35:51;;;;;;;2.00;1.90;;;10.00;99.90;;;;;;476286;250;28162;-73
2022/06/14 04:37:52;;;;;;;2.47;2.33;;;10.00;99.90;;;;;;476294;250;28045;-70
2022/06/14 04:39:53;;;;;;;2.13;2.03;;;10.10;99.90;;;;;;476297;250;28094;-71
2022/06/14 04:41:55;;;;;;;2.50;2.40;;;10.20;99.90;;;;;;476307;247;28163;-71
2022/06/14 04:43:56;;;;;;;2.33;2.23;;;10.20;99.90;;;;;;476280;250;28086;-71
2022/06/14 04:45:57;;;;;;;2.50;2.27;;;10.00;99.90;;;;;;476305;250;28054;-73
2022/06/14 04:47:58;;;;;;;3.20;2.70;;;9.90;99.90;;;;;;476308;250;28045;-70
2022/06/14 04:50:00;;;;;;;2.47;2.37;;;9.80;99.90;;;;;;476316;250;27945;-71
2022/06/14 04:52:01;;;;;;;2.63;2.53;;;9.80;99.90;;;;;;476313;250;28531;-70
2022/06/14 04:54:02;;;;;;;2.23;2.13;;;9.90;99.90;;;;;;476278;250;28531;-70
2022/06/14 04:56:03;;;;;;;2.40;2.30;;;10.00;99.90;;;;;;476282;250;28727;-74
2022/06/14 04:58:05;;;;;;;2.57;2.43;;;10.00;99.90;;;;;;476294;250;28761;-71
2022/06/14 05:00:06;;;;;;;2.63;2.53;;;10.00;99.90;;;;;;476283;250;28084;-71
2022/06/14 05:02:09;;;;;;;3.40;3.10;;;10.00;99.90;;;;;;476293;250;28159;-70
2022/06/14 05:04:08;;;;;;;2.60;2.40;;;10.00;99.90;;;;;;476171;250;28028;-70
2022/06/14 05:06:10;;;;;;;3.00;2.80;;;10.10;99.90;;;;;;476303;250;28150;-73
2022/06/14 05:08:11;;;;;;;2.70;2.60;;;10.20;99.90;;;;;;476294;250;28065;-71
2022/06/14 05:10:12;;;;;;;2.80;2.60;;;10.20;99.90;;;;;;476274;250;28030;-72
2022/06/14 05:12:14;;;;;;;2.70;2.50;;;10.30;99.90;;;;;;476276;249;28237;-70
2022/06/14 05:14:15;;;;;;;3.23;2.70;;;10.30;99.90;;;;;;476265;250;27938;-70
2022/06/14 05:16:16;;;;;;;3.00;2.80;;;10.40;99.90;;;;;;476287;250;28038;-74
2022/06/14 05:18:17;;;;;;;2.90;2.70;;;10.50;99.90;;;;;;476282;250;28557;-71
2022/06/14 05:20:18;;;;;;;3.17;2.97;;;10.60;99.90;;;;;;476277;250;28753;-71
2022/06/14 05:22:20;;;;;;;2.70;2.57;;;10.60;99.90;;;;;;476263;250;28817;-71
2022/06/14 05:24:21;;;;;;;2.60;2.50;;;10.60;99.90;;;;;;476291;250;28182;-71
2022/06/14 05:26:22;;;;;;;3.07;2.87;;;10.70;99.90;;;;;;476295;250;28365;-74
2022/06/14 05:28:23;;;;;;;2.70;2.60;;;10.70;99.90;;;;;;476302;250;28023;-71
2022/06/14 05:30:25;;;;;;;2.60;2.50;;;10.90;99.90;;;;;;476256;250;28216;-71
2022/06/14 05:32:26;;;;;;;2.70;2.40;;;11.00;99.90;;;;;;476272;250;28255;-71
2022/06/14 05:34:27;;;;;;;2.67;2.50;;;11.10;99.90;;;;;;476301;250;28602;-71
2022/06/14 05:36:28;;;;;;;2.30;2.20;;;11.20;99.90;;;;;;476273;250;28383;-73
2022/06/14 05:38:30;;;;;;;2.43;2.30;;;11.30;99.90;;;;;;476280;250;28157;-71
2022/06/14 05:40:31;;;;;;;2.30;2.20;;;11.40;99.90;;;;;;476239;250;28313;-71
2022/06/14 05:42:32;;;;;;;2.40;2.30;;;11.50;99.90;;;;;;476250;250;29318;-70
2022/06/14 05:44:33;;;;;;;2.30;2.20;;;11.60;99.90;;;;;;476270;250;28811;-71
2022/06/14 05:46:35;;;;;;;2.50;2.40;;;11.70;99.90;;;;;;476259;250;28978;-72
2022/06/14 05:48:36;;;;;;;2.40;2.30;;;11.80;99.90;;;;;;476277;250;28808;-71
2022/06/14 05:50:37;;;;;;;2.33;2.17;;;11.90;99.90;;;;;;476278;250;28041;-71
2022/06/14 05:52:38;;;;;;;2.30;2.20;;;12.00;99.90;;;;;;476259;250;28040;-71
2022/06/14 05:54:40;;;;;;;2.70;2.50;;;12.10;99.90;;;;;;476296;250;28100;-71
2022/06/14 05:56:41;;;;;;;2.27;2.17;;;12.30;99.90;;;;;;476287;250;28378;-72
2022/06/14 05:58:43;;;;;;;2.30;2.10;;;;;;;;;;476278;250;28819;-71
2022/06/14 06:00:45;;;;;;;2.20;2.10;;;12.50;99.90;;;;;;468729;253;27751;-71
2022/06/14 06:02:46;;;;;;;2.13;2.03;;;12.50;99.90;;;;;;467842;254;28039;-72
2022/06/14 06:04:47;;;;;;;1.90;1.80;;;12.60;99.90;;;;;;476289;250;28289;-72
2022/06/14 06:06:48;;;;;;;2.00;1.90;;;12.80;99.90;;;;;;476266;250;28366;-71
2022/06/14 06:08:50;;;;;;;1.90;1.80;;;12.90;99.90;;;;;;476281;250;28822;-71
2022/06/14 06:10:51;;;;;;;3.20;2.10;;;13.00;99.90;;;;;;476300;250;28854;-71
2022/06/14 06:12:52;;;;;;;2.37;2.20;;;13.20;99.90;;;;;;476300;250;28242;-70
2022/06/14 06:14:53;;;;;;;2.23;2.13;;;13.50;99.90;;;;;;476191;250;28321;-71
2022/06/14 06:18:59;;;;;;;3.63;2.00;;;14.20;99.90;;;;;;476312;250;28270;-71
2022/06/14 06:21:02;;;;;;;2.40;2.20;;;14.30;99.90;;;;;;476291;250;28247;-72
2022/06/14 06:23:03;;;;;;;2.83;2.47;;;;;;;;;;476189;250;28185;-71
2022/06/14 06:25:04;;;;;;;2.20;2.10;;;14.40;99.90;;;;;;468810;253;27091;-71
2022/06/14 06:27:05;;;;;;;2.17;2.07;;;14.50;99.90;;;;;;467873;254;28857;-71
2022/06/14 06:29:06;;;;;;;2.10;2.00;;;14.50;99.90;;;;;;476297;250;28371;-71
2022/06/14 06:31:08;;;;;;;2.33;2.20;;;14.50;99.90;;;;;;476296;250;28336;-72
2022/06/14 06:33:10;;;;;;;3.23;2.00;;;14.60;99.90;;;;;;476302;250;28776;-71
2022/06/14 06:35:10;;;;;;;1.83;1.73;;;14.80;99.90;;;;;;476233;250;28621;-72
2022/06/14 06:37:11;;;;;;;2.50;2.30;;;14.90;99.90;;;;;;476260;250;28374;-71
2022/06/14 06:39:13;;;;;;;3.07;2.13;;;15.00;99.90;;;;;;476304;250;28892;-72
2022/06/14 06:43:33;;;;;;;4.40;2.20;;;15.20;99.90;;;;;;476204;250;29125;-71
2022/06/14 06:45:35;;;;;;;2.50;2.30;;;15.40;99.90;;;;;;476258;250;29284;-71
2022/06/14 06:47:36;;;;;;;2.57;2.30;;;15.50;99.90;;;;;;476267;250;28819;-74
2022/06/14 06:49:37;;;;;;;2.93;2.07;;;15.50;99.90;;;;;;476270;250;28793;-71
2022/06/14 06:51:38;;;;;;;3.63;2.50;;;15.50;99.90;;;;;;476275;250;28820;-72
2022/06/14 06:53:40;;;;;;;2.90;2.40;;;15.60;99.90;;;;;;476248;250;28784;-71
2022/06/14 06:55:41;;;;;;;2.43;2.10;;;15.50;99.90;;;;;;476227;250;28925;-72
2022/06/14 06:57:42;;;;;;;2.23;2.10;;;15.50;99.90;;;;;;476276;250;29183;-73
2022/06/14 06:59:43;;;;;;;2.53;2.00;;;15.50;99.90;;;;;;476289;250;28804;-72
2022/06/14 07:01:45;;;;;;;2.10;2.00;;;15.50;99.90;;;;;;476251;250;28895;-72
2022/06/14 07:03:46;;;;;;;2.67;2.30;;;15.80;99.90;;;;;;476286;250;30380;-71
2022/06/14 07:05:47;;;;;;;2.40;2.20;;;15.90;99.90;;;;;;476287;250;29276;-72
2022/06/14 07:07:48;;;;;;;3.80;2.50;;;16.00;99.90;;;;;;476322;250;29429;-74
2022/06/14 07:09:50;;;;;;;3.20;2.97;;;16.10;99.90;;;;;;476295;250;29246;-71
2022/06/14 07:11:51;;;;;;;4.20;2.37;;;16.00;99.90;;;;;;476312;250;28854;-71
2022/06/14 07:13:52;;;;;;;2.70;2.50;;;16.20;99.90;;;;;;476255;250;28782;-71
2022/06/14 07:15:53;;;;;;;2.27;2.07;;;16.30;99.90;;;;;;476260;250;28844;-71
2022/06/14 07:17:55;;;;;;;2.57;2.40;;;16.30;99.90;;;;;;476309;250;28847;-75
2022/06/14 07:19:56;;;;;;;2.10;2.00;;;16.30;99.90;;;;;;476300;250;28786;-72
2022/06/14 07:21:57;;;;;;;4.70;2.40;;;16.30;99.90;;;;;;476294;250;28887;-71
2022/06/14 07:23:58;;;;;;;2.87;2.03;;;16.30;99.90;;;;;;476299;250;28826;-71
2022/06/14 07:26:00;;;;;;;2.70;2.30;;;16.40;99.90;;;;;;476264;249;28923;-72
2022/06/14 07:28:01;;;;;;;2.00;1.90;;;16.50;99.90;;;;;;476305;250;29289;-74
2022/06/14 07:30:02;;;;;;;3.63;2.63;;;16.50;99.90;;;;;;476247;250;29253;-72
2022/06/14 07:32:04;;;;;;;2.83;2.03;;;16.70;99.90;;;;;;476303;250;29304;-71
2022/06/14 07:34:05;;;;;;;2.87;2.67;;;16.70;99.90;;;;;;476270;250;29356;-71
2022/06/14 07:36:06;;;;;;;3.77;2.30;;;16.80;99.90;;;;;;476300;250;28891;-71
2022/06/14 07:38:07;;;;;;;2.30;2.10;;;16.70;99.90;;;;;;476315;250;28885;-74
2022/06/14 07:40:09;;;;;;;2.50;2.23;;;16.80;99.90;;;;;;476296;250;28883;-71
2022/06/14 07:42:10;;;;;;;3.60;2.27;;;16.90;99.90;;;;;;476275;250;28841;-72
2022/06/14 07:44:11;;;;;;;4.20;2.13;;;16.80;99.90;;;;;;476258;250;28805;-71
2022/06/14 07:46:12;;;;;;;4.03;1.90;;;16.80;99.90;;;;;;476248;250;28910;-71
2022/06/14 07:48:14;;;;;;;2.33;2.20;;;17.10;99.90;;;;;;476295;250;28833;-72
2022/06/14 07:50:15;;;;;;;3.10;2.10;;;17.20;99.90;;;;;;476311;250;28864;-71
2022/06/14 07:52:16;;;;;;;2.40;2.20;;;17.20;99.90;;;;;;476285;250;28853;-72
2022/06/14 07:54:21;;;;;;;2.00;1.90;;;17.30;99.90;;;;;;476285;250;29347;-72
2022/06/14 07:56:19;;;;;;;3.30;2.40;;;17.20;99.90;;;;;;476067;250;29303;-72
2022/06/14 07:58:20;;;;;;;2.53;2.00;;;17.20;99.90;;;;;;476304;250;29351;-74
2022/06/14 08:02:41;;;;;;;2.97;2.30;;;17.40;99.90;;;;;;476208;249;28855;-72
2022/06/14 08:04:42;;;;;;;5.10;2.70;;;17.50;99.90;;;;;;476327;250;28832;-74
2022/06/14 08:06:43;;;;;;;2.67;2.47;;;17.60;99.90;;;;;;476331;249;28778;-71
2022/06/14 08:08:45;;;;;;;5.20;2.50;;;17.50;99.90;;;;;;476300;247;29297;-71
2022/06/14 08:10:47;;;;;;;4.40;2.63;;;17.60;99.90;;;;;;476273;250;28813;-71
2022/06/14 08:12:47;;;;;;;5.37;2.40;;;17.70;99.90;;;;;;476264;250;28774;-72
2022/06/14 08:14:48;;;;;;;2.40;2.20;;;17.70;99.90;;;;;;476258;250;28940;-72
2022/06/14 08:16:52;;;;;;;3.27;2.70;;;17.80;99.90;;;;;;476235;250;29424;-72
2022/06/14 08:18:51;;;;;;;2.60;2.40;;;17.80;99.90;;;;;;476121;250;29265;-72
2022/06/14 08:20:52;;;;;;;3.30;2.60;;;17.80;99.90;;;;;;476306;250;29391;-71
2022/06/14 08:22:53;;;;;;;3.80;2.23;;;18.00;99.90;;;;;;476306;250;29356;-72
2022/06/14 08:24:55;;;;;;;7.70;2.40;;;17.90;99.90;;;;;;476297;250;28836;-73
2022/06/14 08:26:56;;;;;;;3.27;2.30;;;18.00;99.90;;;;;;476325;250;28786;-72
2022/06/14 08:28:57;;;;;;;3.00;2.47;;;18.10;99.90;;;;;;476333;250;28829;-72
2022/06/14 08:30:58;;;;;;;3.03;2.47;;;17.90;99.90;;;;;;476321;250;28817;-74
2022/06/14 08:33:00;;;;;;;2.53;2.27;;;17.90;99.90;;;;;;476325;250;28778;-72
2022/06/14 08:35:01;;;;;;;2.70;2.50;;;18.00;99.90;;;;;;476309;250;28836;-72
2022/06/14 08:37:02;;;;;;;3.00;2.57;;;18.20;99.90;;;;;;476287;250;28781;-72
2022/06/14 08:39:03;;;;;;;3.03;2.73;;;18.20;99.90;;;;;;476270;250;28820;-71
2022/06/14 08:41:05;;;;;;;3.20;2.50;;;18.10;99.90;;;;;;476271;250;29340;-73
2022/06/14 08:43:06;;;;;;;4.00;2.57;;;18.20;99.90;;;;;;476295;250;29337;-72
2022/06/14 08:45:07;;;;;;;3.97;2.63;;;18.10;99.90;;;;;;476283;250;29388;-72
2022/06/14 08:47:09;;;;;;;5.93;3.03;;;18.30;99.90;;;;;;476267;250;29399;-71
2022/06/14 08:49:10;;;;;;;3.43;2.80;;;18.50;99.90;;;;;;476223;250;29014;-72
2022/06/14 08:51:11;;;;;;;6.17;2.90;;;18.40;99.90;;;;;;476288;250;28818;-72
2022/06/14 08:53:12;;;;;;;3.07;2.87;;;18.10;99.90;;;;;;476311;250;28790;-71
2022/06/14 08:55:13;;;;;;;2.80;2.60;;;18.10;99.90;;;;;;476301;250;28817;-73
2022/06/14 08:57:15;;;;;;;2.60;2.43;;;18.00;99.90;;;;;;476256;250;28960;-72
2022/06/14 08:59:16;;;;;;;2.40;2.20;;;18.00;99.90;;;;;;476297;250;28912;-72
2022/06/14 09:01:17;;;;;;;4.53;2.70;;;17.90;99.90;;;;;;476278;250;28862;-74
2022/06/14 09:03:18;;;;;;;3.63;2.80;;;18.10;99.90;;;;;;476279;250;28909;-72
2022/06/14 09:05:20;;;;;;;4.00;2.60;;;18.40;99.90;;;;;;476302;250;28825;-72
2022/06/14 09:07:21;;;;;;;5.57;2.70;;;18.40;99.90;;;;;;476254;250;29233;-71
2022/06/14 09:09:22;;;;;;;3.20;2.60;;;18.40;99.90;;;;;;476280;250;29327;-72
2022/06/14 09:11:23;;;;;;;2.67;2.43;;;18.50;99.90;;;;;;476285;250;29413;-72
2022/06/14 09:13:25;;;;;;;3.90;2.40;;;18.50;99.90;;;;;;476296;250;28908;-72
2022/06/14 09:15:26;;;;;;;2.97;2.67;;;18.50;99.90;;;;;;476286;250;28885;-73
2022/06/14 09:17:27;;;;;;;3.33;2.80;;;18.70;99.90;;;;;;476290;250;28788;-72
2022/06/14 09:19:28;;;;;;;4.13;2.70;;;18.80;99.90;;;;;;476272;250;28821;-72
2022/06/14 09:21:30;;;;;;;5.00;2.70;;;18.80;99.90;;;;;;476303;250;29314;-74
2022/06/14 09:23:31;;;;;;;4.30;2.83;;;19.20;99.90;;;;;;476303;250;28790;-72
2022/06/14 09:25:32;;;;;;;2.80;2.60;;;19.20;99.90;;;;;;476290;250;28887;-72
2022/06/14 09:27:33;;;;;;;2.63;2.33;;;19.00;99.90;;;;;;476305;250;28816;-72
2022/06/14 09:29:35;;;;;;;2.73;2.53;;;19.20;99.90;;;;;;476302;250;28821;-73
2022/06/14 09:31:36;;;;;;;3.73;2.23;;;19.00;99.90;;;;;;476283;250;29498;-75
2022/06/14 09:33:37;;;;;;;2.60;2.40;;;18.80;99.90;;;;;;476299;250;29326;-72
2022/06/14 09:35:38;;;;;;;2.53;2.33;;;18.80;99.90;;;;;;476255;250;29338;-71
2022/06/14 09:37:40;;;;;;;3.03;2.70;;;18.90;99.90;;;;;;475727;250;29393;-72
2022/06/14 09:39:41;;;;;;;5.37;2.60;;;18.80;99.90;;;;;;475696;250;28813;-72
2022/06/14 09:41:42;;;;;;;2.67;2.30;;;19.20;99.90;;;;;;475972;250;28840;-74
2022/06/14 09:43:43;;;;;;;3.47;2.73;;;19.30;99.90;;;;;;476297;250;28789;-72
2022/06/14 09:45:45;;;;;;;4.07;2.40;;;19.60;99.90;;;;;;476291;250;28881;-73
2022/06/14 09:47:46;;;;;;;2.90;2.70;;;19.70;99.90;;;;;;476310;250;28800;-72
2022/06/14 09:49:47;;;;;;;2.90;2.70;;;19.60;99.90;;;;;;476250;250;28828;-72
2022/06/14 09:51:48;;;;;;;5.87;2.93;;;19.50;99.90;;;;;;476327;250;28825;-75
2022/06/14 09:53:50;;;;;;;3.87;2.23;;;19.30;99.90;;;;;;476310;250;28793;-72
2022/06/14 09:55:51;;;;;;;4.07;2.43;;;19.30;99.90;;;;;;476275;250;29334;-72
2022/06/14 09:57:52;;;;;;;2.57;2.20;;;19.30;99.90;;;;;;476281;250;29424;-72
2022/06/14 09:59:53;;;;;;;5.53;2.70;;;19.60;99.90;;;;;;476276;250;29393;-72
2022/06/14 10:01:55;;;;;;;3.17;2.60;;;20.00;99.90;;;;;;476308;250;29415;-73
2022/06/14 10:03:56;;;;;;;2.13;1.90;;;20.10;99.90;;;;;;476292;250;28785;-72
2022/06/14 10:05:58;;;;;;;2.63;2.13;;;20.00;99.90;;;;;;476281;250;28895;-73
2022/06/14 10:08:00;;;;;;;2.70;2.37;;;20.00;99.90;;;;;;476255;250;28821;-72
2022/06/14 10:10:00;;;;;;;2.13;2.03;;;20.00;99.90;;;;;;476180;250;28824;-73
2022/06/14 10:12:01;;;;;;;3.63;2.03;;;20.00;99.90;;;;;;476300;250;28816;-74
2022/06/14 10:14:02;;;;;;;2.83;2.37;;;20.00;99.90;;;;;;476309;250;28786;-72
2022/06/14 10:16:03;;;;;;;3.00;2.27;;;20.10;99.90;;;;;;476262;250;28840;-72
2022/06/14 10:18:05;;;;;;;2.97;2.17;;;20.10;99.90;;;;;;476288;250;29233;-71
2022/06/14 10:20:06;;;;;;;8.10;2.50;;;19.90;99.90;;;;;;476291;250;29300;-72
2022/06/14 10:22:07;;;;;;;2.47;2.20;;;19.80;99.90;;;;;;476293;250;29422;-74
2022/06/14 10:24:08;;;;;;;2.53;2.20;;;19.90;99.90;;;;;;476270;250;29307;-72
2022/06/14 10:28:29;;;;;;;2.30;2.10;;;20.50;99.90;;;;;;476281;250;28826;-72
2022/06/14 10:30:30;;;;;;;4.07;2.40;;;20.30;99.90;;;;;;476286;250;28867;-72
2022/06/14 10:32:32;;;;;;;3.97;2.40;;;20.10;99.90;;;;;;476331;250;28869;-73
2022/06/14 10:34:33;;;;;;;2.13;1.90;;;19.80;99.90;;;;;;476284;249;28872;-72
2022/06/14 10:36:35;;;;;;;2.50;2.30;;;19.80;99.90;;;;;;476306;250;29303;-74
2022/06/14 10:38:35;;;;;;;2.43;2.23;;;20.00;99.90;;;;;;476278;250;30060;-72
2022/06/14 10:40:37;;;;;;;3.10;2.33;;;20.40;99.90;;;;;;476319;250;29281;-73
2022/06/14 10:42:38;;;;;;;2.00;1.90;;;20.50;99.90;;;;;;476299;250;28825;-72
2022/06/14 10:44:41;;;;;;;2.13;1.93;;;20.50;99.90;;;;;;476289;249;28891;-72
2022/06/14 10:46:43;;;;;;;4.97;2.90;;;20.50;99.90;;;;;;476196;250;28895;-74
2022/06/14 10:48:42;;;;;;;3.43;2.67;;;20.50;99.90;;;;;;476108;250;28773;-72